Time;durP1;ratioP1;P1;durP2;ratioP2;P2;SDS_P1;SDS_P2;PMS_P1;PMS_P2;Temp;Humidity;BMP_temperature;BMP_pressure;BME280_temperature;BME280_humidity;BME280_pressure;Samples;Min_cycle;Max_cycle;Signal;HPM_P1;HPM_P2
2022/07/31 00:00:18;;;;;;;4.53;2.67;;;;;;;24.14;47.51;101683.16;5075133;28;20032;-72
2022/07/31 00:02:43;;;;;;;4.45;2.72;;;;;;;24.14;47.72;101688.47;5075415;28;20021;-72
2022/07/31 00:05:09;;;;;;;6.63;2.85;;;;;;;24.15;47.83;101691.97;5074455;28;20095;-72
2022/07/31 00:07:34;;;;;;;4.93;3.00;;;;;;;24.14;47.31;101682.31;5075579;28;20388;-72
2022/07/31 00:09:59;;;;;;;4.93;3.22;;;;;;;24.11;47.58;101678.13;5075272;28;20033;-72
2022/07/31 00:12:25;;;;;;;5.50;2.80;;;;;;;24.10;47.62;101673.78;5074649;28;20468;-72
2022/07/31 00:14:50;;;;;;;4.68;3.08;;;;;;;24.07;47.76;101674.06;5075192;28;20270;-72
2022/07/31 00:17:15;;;;;;;6.07;3.38;;;;;;;24.09;48.02;101672.94;5075006;28;20119;-72
2022/07/31 00:19:40;;;;;;;4.97;2.92;;;;;;;24.06;47.89;101667.88;5074480;28;20395;-72
2022/07/31 00:22:09;;;;;;;4.53;2.80;;;;;;;24.04;48.01;101667.19;5075144;28;20111;-72
2022/07/31 00:24:35;;;;;;;6.03;2.72;;;;;;;24.03;48.08;101665.50;5075320;28;20269;-72
2022/07/31 00:27:00;;;;;;;5.10;3.05;;;;;;;24.00;47.81;101664.97;5073351;28;20403;-72
2022/07/31 00:29:25;;;;;;;5.53;3.03;;;;;;;24.02;47.84;101668.31;5075413;28;20476;-73
2022/07/31 00:31:50;;;;;;;4.55;2.92;;;;;;;24.02;48.02;101666.53;5074954;28;20491;-72
2022/07/31 00:34:16;;;;;;;4.93;3.07;;;;;;;24.02;48.15;101663.00;5073931;28;20373;-72
2022/07/31 00:36:41;;;;;;;5.65;2.90;;;;;;;24.05;47.89;101673.34;5074894;28;20368;-72
2022/07/31 00:39:08;;;;;;;5.78;2.90;;;;;;;24.03;47.82;101673.50;5074786;28;20020;-72
2022/07/31 00:41:44;;;;;;;4.80;3.05;;;;;;;24.01;48.10;101688.78;5072981;28;20035;-72
2022/07/31 00:44:11;;;;;;;4.35;2.80;;;;;;;24.00;48.34;101673.78;5074496;28;20099;-72
2022/07/31 00:46:43;;;;;;;8.00;3.22;;;;;;;24.00;48.36;101668.47;5074574;28;20118;-72
2022/07/31 00:49:09;;;;;;;6.47;3.10;;;;;;;23.99;47.98;101671.28;5074712;28;20108;-72
2022/07/31 00:51:35;;;;;;;4.68;2.70;;;;;;;24.00;48.20;101672.97;5075142;28;20104;-72
2022/07/31 00:54:04;;;;;;;4.38;2.80;;;;;;;23.99;47.80;101671.28;5073506;28;20056;-72
2022/07/31 00:56:30;;;;;;;5.70;2.92;;;;;;;23.98;48.24;101670.44;5074538;28;20021;-72
2022/07/31 00:58:55;;;;;;;4.77;2.83;;;;;;;23.99;47.72;101666.81;5074421;28;20031;-72
2022/07/31 01:01:21;;;;;;;5.32;2.95;;;;;;;23.98;48.09;101662.44;5073614;28;20418;-72
2022/07/31 01:03:47;;;;;;;5.05;2.85;;;;;;;23.96;47.70;101663.56;5074475;28;20479;-72
2022/07/31 01:06:12;;;;;;;5.00;2.92;;;;;;;23.95;48.23;101662.75;5074192;28;20024;-72
2022/07/31 01:08:38;;;;;;;5.75;3.20;;;;;;;23.94;48.14;101661.09;5073657;28;20480;-72
2022/07/31 01:11:28;;;;;;;4.57;2.88;;;;;;;23.93;48.28;101656.72;5074067;28;20024;-72
2022/07/31 01:13:57;;;;;;;5.65;3.13;;;;;;;23.93;47.95;101661.22;5074288;28;20052;-73
2022/07/31 01:16:27;;;;;;;4.40;2.80;;;;;;;23.94;47.95;101663.75;5073235;28;20078;-73
2022/07/31 01:18:55;;;;;;;4.70;2.85;;;;;;;23.93;48.34;101664.72;5074377;28;20503;-72
2022/07/31 01:21:48;;;;;;;5.00;2.80;;;;;;;23.93;48.38;101666.53;5073963;28;20127;-72
2022/07/31 01:24:38;;;;;;;6.18;2.88;;;;;;;23.93;47.92;101669.22;5073128;28;20169;-72
2022/07/31 01:27:41;;;;;;;4.95;3.00;;;;;;;23.93;48.28;101662.06;5073897;28;20029;-72
2022/07/31 01:30:07;;;;;;;5.18;3.10;;;;;;;23.92;47.90;101663.03;5072869;28;20032;-72
2022/07/31 01:32:38;;;;;;;5.15;2.83;;;;;;;23.91;48.15;101658.69;5073750;28;20089;-72
2022/07/31 01:35:09;;;;;;;4.68;3.10;;;;;;;23.90;47.86;101655.19;5073567;28;20028;-73
2022/07/31 01:37:42;;;;;;;4.32;2.63;;;;;;;23.90;47.88;101651.69;5073090;28;20016;-73
2022/07/31 01:40:12;;;;;;;6.57;3.28;;;;;;;23.89;47.80;101650.00;5073325;28;20070;-73
2022/07/31 01:42:41;;;;;;;5.28;2.97;;;;;;;23.86;48.00;101648.47;5073635;28;20021;-72
2022/07/31 01:45:14;;;;;;;4.20;2.90;;;;;;;23.85;48.02;101649.44;5072520;28;20028;-72
2022/07/31 01:47:41;;;;;;;5.35;3.20;;;;;;;23.82;48.27;101647.03;5073592;28;20515;-72
2022/07/31 01:50:07;;;;;;;4.63;3.10;;;;;;;23.84;47.90;101650.44;5072597;28;20079;-73
2022/07/31 01:52:35;;;;;;;6.35;3.50;;;;;;;23.84;47.74;101650.44;5072949;28;20107;-72
2022/07/31 01:55:02;;;;;;;5.50;3.70;;;;;;;23.84;47.57;101646.94;5073310;28;20055;-72
2022/07/31 01:57:33;;;;;;;7.57;3.10;;;;;;;23.83;47.78;101646.09;5072699;28;20054;-73
2022/07/31 02:00:01;;;;;;;6.05;3.33;;;;;;;23.83;47.83;101655.84;5072901;28;20025;-72
2022/07/31 02:02:28;;;;;;;6.60;3.33;;;;;;;23.84;47.89;101649.59;5073465;28;20020;-72
2022/07/31 02:04:54;;;;;;;5.45;3.40;;;;;;;23.84;47.97;101646.94;5072471;28;20055;-73
2022/07/31 02:07:21;;;;;;;5.30;3.20;;;;;;;23.82;47.98;101647.03;5072898;28;20047;-72
2022/07/31 02:09:47;;;;;;;5.30;3.10;;;;;;;23.82;48.09;101649.72;5073052;28;20026;-73
2022/07/31 02:12:13;;;;;;;5.10;3.28;;;;;;;23.80;48.12;101643.69;5072062;28;20456;-73
2022/07/31 02:14:41;;;;;;;5.15;3.13;;;;;;;23.79;48.16;101639.34;5073059;28;20025;-73
2022/07/31 02:17:08;;;;;;;6.20;3.72;;;;;;;23.79;47.69;101643.84;5072915;28;20032;-72
2022/07/31 02:19:36;;;;;;;4.97;3.30;;;;;;;23.78;47.68;101637.66;5072314;28;20029;-73
2022/07/31 02:22:02;;;;;;;5.35;3.33;;;;;;;23.79;48.05;101633.19;5072689;28;20025;-73
2022/07/31 02:24:27;;;;;;;6.18;3.53;;;;;;;23.79;47.77;101638.50;5072713;28;20021;-72
2022/07/31 02:26:53;;;;;;;5.32;3.78;;;;;;;23.78;47.72;101636.81;5072424;28;20029;-73
2022/07/31 02:29:20;;;;;;;6.30;3.67;;;;;;;23.77;47.85;101651.97;5072712;28;20033;-72
2022/07/31 02:31:54;;;;;;;6.05;3.83;;;;;;;23.78;47.97;101652.78;5072984;28;20033;-72
2022/07/31 02:34:20;;;;;;;5.75;3.20;;;;;;;23.78;48.04;101658.13;5071913;28;20020;-73
2022/07/31 02:36:46;;;;;;;4.38;3.00;;;;;;;23.78;48.10;101658.94;5072756;28;20028;-72
2022/07/31 02:39:14;;;;;;;5.57;3.50;;;;;;;23.78;47.79;101655.44;5071960;28;20028;-73
2022/07/31 02:41:40;;;;;;;5.82;3.72;;;;;;;23.76;48.05;101649.44;5072878;28;20034;-73
2022/07/31 02:44:07;;;;;;;5.68;3.75;;;;;;;23.76;47.66;101650.28;5072585;28;20032;-73
2022/07/31 02:46:34;;;;;;;6.35;3.90;;;;;;;23.77;48.14;101651.13;5072111;28;20028;-73
2022/07/31 02:49:00;;;;;;;5.03;3.17;;;;;;;23.76;47.78;101636.97;5072352;28;20491;-73
2022/07/31 02:51:30;;;;;;;5.93;3.60;;;;;;;23.77;47.86;101638.66;5072585;28;20025;-73
2022/07/31 02:53:56;;;;;;;5.13;3.35;;;;;;;23.76;48.00;101638.81;5071573;28;20111;-72
2022/07/31 02:56:22;;;;;;;5.28;3.22;;;;;;;23.72;48.01;101633.75;5072316;28;20063;-73
2022/07/31 02:58:50;;;;;;;6.28;3.50;;;;;;;23.72;48.16;101633.75;5072505;28;20028;-72
2022/07/31 03:01:15;;;;;;;5.18;3.40;;;;;;;23.70;48.05;101632.22;5071378;28;20071;-73
2022/07/31 03:03:41;;;;;;;5.75;3.70;;;;;;;23.70;48.44;101624.22;5072480;28;20151;-73
2022/07/31 03:06:06;;;;;;;5.22;3.17;;;;;;;23.69;48.23;101625.22;5076101;28;20043;-73
2022/07/31 03:08:31;;;;;;;6.63;3.40;;;;;;;23.70;48.38;101624.22;5076118;28;20013;-73
2022/07/31 03:10:57;;;;;;;5.88;3.65;;;;;;;23.72;48.24;101624.94;5076550;28;20066;-73
2022/07/31 03:13:26;;;;;;;6.97;3.40;;;;;;;23.71;48.28;101623.25;5076717;28;20032;-73
2022/07/31 03:15:52;;;;;;;5.57;3.47;;;;;;;23.72;47.98;101620.47;5075576;28;20075;-73
2022/07/31 03:18:20;;;;;;;4.97;3.20;;;;;;;23.71;47.91;101618.75;5076032;28;20472;-73
2022/07/31 03:20:50;;;;;;;8.60;3.75;;;;;;;23.71;48.07;101621.44;5076169;28;20082;-73
2022/07/31 03:23:18;;;;;;;4.57;2.83;;;;;;;23.72;47.95;101620.47;5075090;28;20484;-73
2022/07/31 03:25:44;;;;;;;5.65;3.45;;;;;;;23.72;48.41;101615.13;5076337;28;20024;-73
2022/07/31 03:28:09;;;;;;;4.63;3.10;;;;;;;23.71;48.14;101613.44;5075874;28;20126;-72
2022/07/31 03:30:35;;;;;;;5.32;3.53;;;;;;;23.72;48.08;101617.78;5075444;28;20028;-72
2022/07/31 03:33:02;;;;;;;6.80;3.30;;;;;;;23.72;48.15;101614.31;5075820;28;20158;-73
2022/07/31 03:35:28;;;;;;;5.70;3.45;;;;;;;23.72;48.06;101612.47;5075570;28;20412;-73
2022/07/31 03:37:53;;;;;;;4.85;3.17;;;;;;;23.70;47.93;101611.78;5076257;28;20021;-73
2022/07/31 03:40:19;;;;;;;6.10;3.55;;;;;;;23.69;48.19;101609.25;5075768;28;20040;-73
2022/07/31 03:42:46;;;;;;;5.05;3.40;;;;;;;23.68;47.84;101608.41;5075192;28;20457;-72
2022/07/31 03:45:12;;;;;;;5.60;3.33;;;;;;;23.69;47.93;101619.91;5075435;28;20025;-73
2022/07/31 03:47:40;;;;;;;6.22;3.80;;;;;;;23.66;48.18;101609.56;5075847;28;20097;-72
2022/07/31 03:50:07;;;;;;;5.65;3.00;;;;;;;23.67;48.40;101605.88;5074673;28;20115;-72
2022/07/31 03:52:34;;;;;;;5.47;3.20;;;;;;;23.68;48.04;101612.91;5076060;28;20020;-73
2022/07/31 03:54:59;;;;;;;5.03;3.65;;;;;;;23.67;48.26;101606.75;5075688;28;20078;-72
2022/07/31 03:57:27;;;;;;;5.38;3.58;;;;;;;23.66;48.25;101610.38;5075096;28;20020;-73
2022/07/31 03:59:56;;;;;;;5.93;3.72;;;;;;;23.66;48.29;101607.72;5075730;28;20024;-73
2022/07/31 04:02:25;;;;;;;5.07;3.42;;;;;;;23.66;48.30;101612.22;5075652;28;20032;-72
2022/07/31 04:04:50;;;;;;;5.05;3.60;;;;;;;23.66;48.27;101617.53;5075226;28;20094;-72
2022/07/31 04:07:16;;;;;;;5.77;3.73;;;;;;;23.66;48.01;101614.88;5075378;28;20471;-72
2022/07/31 04:09:41;;;;;;;5.82;3.35;;;;;;;23.67;48.27;101616.53;5074944;28;20270;-72
2022/07/31 04:12:07;;;;;;;5.35;3.60;;;;;;;23.65;48.32;101616.66;5074558;28;20033;-72
2022/07/31 04:14:35;;;;;;;6.72;3.58;;;;;;;23.64;48.38;101615.00;5075556;28;20052;-71
2022/07/31 04:17:00;;;;;;;5.50;3.88;;;;;;;23.64;48.06;101619.47;5074720;28;20115;-71
2022/07/31 04:19:29;;;;;;;5.45;3.40;;;;;;;23.66;48.01;101617.53;5074909;28;20589;-71
2022/07/31 04:21:57;;;;;;;4.78;3.40;;;;;;;23.65;48.06;101616.66;5075410;28;20033;-71
2022/07/31 04:24:23;;;;;;;5.13;3.42;;;;;;;23.67;48.26;101632.50;5075425;28;20028;-71
2022/07/31 04:26:49;;;;;;;5.65;3.30;;;;;;;23.67;48.03;101637.81;5074495;28;20032;-72
2022/07/31 04:29:14;;;;;;;5.90;3.30;;;;;;;23.65;47.93;101635.28;5074907;28;20476;-71
2022/07/31 04:31:40;;;;;;;5.00;3.25;;;;;;;23.66;48.08;101625.50;5075115;28;20127;-72
2022/07/31 04:34:05;;;;;;;5.07;3.30;;;;;;;23.65;48.31;101629.16;5074014;28;20025;-71
2022/07/31 04:36:30;;;;;;;5.53;3.63;;;;;;;23.64;48.08;101635.44;5075240;28;20312;-71
2022/07/31 04:38:56;;;;;;;6.70;3.58;;;;;;;23.65;48.21;101623.81;5074207;28;20277;-71
2022/07/31 04:41:22;;;;;;;5.25;2.95;;;;;;;23.64;48.31;101623.00;5074932;28;20035;-72
2022/07/31 04:43:47;;;;;;;5.22;3.40;;;;;;;23.64;48.59;101632.78;5075058;28;20353;-71
2022/07/31 04:46:12;;;;;;;5.22;3.45;;;;;;;23.64;48.55;101638.09;5074519;28;20066;-72
2022/07/31 04:48:37;;;;;;;4.77;3.30;;;;;;;23.62;48.29;101632.91;5075128;28;20468;-72
2022/07/31 04:51:03;;;;;;;5.15;3.05;;;;;;;23.63;48.56;101620.47;5074592;28;20285;-72
2022/07/31 04:53:28;;;;;;;5.50;3.30;;;;;;;23.62;48.47;101629.44;5073999;28;20495;-72
2022/07/31 04:58:37;;;;;;;5.70;3.13;;;;;;;23.62;48.84;101627.59;5074512;28;20043;-71
2022/07/31 05:01:08;;;;;;;4.43;2.67;;;;;;;23.62;48.86;101630.25;5073500;28;20033;-72
2022/07/31 05:03:33;;;;;;;5.68;3.10;;;;;;;23.64;48.70;101632.78;5074515;28;20307;-72
2022/07/31 05:06:12;;;;;;;5.13;2.90;;;;;;;23.64;48.66;101624.78;5074257;28;20021;-72
2022/07/31 05:08:38;;;;;;;4.82;2.75;;;;;;;23.64;48.94;101619.47;5073936;28;20368;-71
2022/07/31 05:11:22;;;;;;;5.47;3.33;;;;;;;23.65;48.60;101622.00;5073910;28;20111;-71
2022/07/31 05:13:56;;;;;;;4.70;2.70;;;;;;;23.65;48.57;101616.66;5074510;28;20104;-72
2022/07/31 05:16:22;;;;;;;5.45;2.50;;;;;;;23.63;48.80;101608.00;5073962;28;20052;-72
2022/07/31 05:18:50;;;;;;;4.95;2.38;;;;;;;23.64;49.17;101609.69;5074060;28;20441;-72
2022/07/31 05:21:16;;;;;;;4.47;2.30;;;;;;;23.62;49.05;101608.97;5073156;28;20178;-72
2022/07/31 05:23:44;;;;;;;4.20;2.35;;;;;;;23.64;48.96;101607.03;5073936;28;20028;-71
2022/07/31 05:26:10;;;;;;;5.25;2.53;;;;;;;23.66;49.03;101605.06;5073788;28;20021;-72
2022/07/31 05:28:37;;;;;;;6.45;2.80;;;;;;;23.65;49.05;101613.19;5072776;28;20032;-72
2022/07/31 05:31:03;;;;;;;5.38;2.53;;;;;;;23.64;49.42;101604.38;5073396;28;20480;-72
2022/07/31 05:33:28;;;;;;;3.92;2.15;;;;;;;23.66;49.45;101601.56;5073814;28;20035;-72
2022/07/31 05:35:55;;;;;;;3.60;2.05;;;;;;;23.65;49.39;101611.34;5073180;28;20025;-72
2022/07/31 05:38:20;;;;;;;4.82;2.42;;;;;;;23.65;49.17;101602.53;5073578;28;20028;-72
2022/07/31 05:40:45;;;;;;;4.93;2.25;;;;;;;23.67;49.38;101597.91;5073984;28;20498;-72
2022/07/31 05:43:11;;;;;;;3.70;1.92;;;;;;;23.67;49.31;101604.09;5072836;28;20031;-72
2022/07/31 05:45:36;;;;;;;4.28;2.22;;;;;;;23.65;49.59;101603.38;5073976;28;20112;-72
2022/07/31 05:48:02;;;;;;;4.28;2.25;;;;;;;23.64;49.40;101600.84;5073519;28;20375;-72
2022/07/31 05:50:27;;;;;;;4.30;2.10;;;;;;;23.65;49.59;101602.53;5072964;28;20476;-72
2022/07/31 05:52:53;;;;;;;3.73;1.97;;;;;;;23.64;49.91;101606.16;5073694;28;20102;-72
2022/07/31 05:55:19;;;;;;;5.28;2.30;;;;;;;23.65;49.79;101607.84;5073973;28;20448;-72
2022/07/31 05:57:44;;;;;;;3.80;1.77;;;;;;;23.64;49.79;101609.69;5072601;28;20115;-72
2022/07/31 06:00:10;;;;;;;3.87;2.23;;;;;;;23.64;50.03;101608.81;5072981;28;20052;-72
2022/07/31 06:02:35;;;;;;;3.90;1.65;;;;;;;23.64;50.26;101609.69;5073416;28;20813;-72
2022/07/31 06:05:03;;;;;;;4.37;2.07;;;;;;;23.64;49.97;101603.50;5071959;28;20056;-72
2022/07/31 06:07:28;;;;;;;3.55;2.10;;;;;;;23.66;49.91;101606.88;5072993;28;20760;-72
2022/07/31 06:09:56;;;;;;;4.00;2.03;;;;;;;23.65;50.29;101600.72;5073155;28;20040;-72
2022/07/31 06:12:22;;;;;;;4.43;1.80;;;;;;;23.65;50.41;101598.03;5072354;28;20032;-72
2022/07/31 06:14:47;;;;;;;4.37;1.93;;;;;;;23.67;50.19;101605.88;5072891;28;20028;-72
2022/07/31 06:17:13;;;;;;;5.03;2.03;;;;;;;23.67;49.96;101605.88;5072282;28;20348;-72
2022/07/31 06:19:38;;;;;;;3.63;1.80;;;;;;;23.67;50.03;101608.53;5072702;28;20097;-72
2022/07/31 06:22:04;;;;;;;3.90;1.88;;;;;;;23.68;50.29;101604.91;5072414;28;20061;-72
2022/07/31 06:24:30;;;;;;;4.20;1.65;;;;;;;23.68;50.13;101611.06;5072001;28;20021;-71
2022/07/31 06:27:00;;;;;;;3.30;1.90;;;;;;;23.68;49.96;101605.75;5072760;28;20130;-72
2022/07/31 06:29:27;;;;;;;4.15;1.85;;;;;;;23.68;50.31;101600.41;5072947;28;20078;-72
2022/07/31 06:31:52;;;;;;;3.20;1.67;;;;;;;23.69;50.11;101593.31;5072011;28;20025;-72
2022/07/31 06:34:18;;;;;;;3.10;1.60;;;;;;;23.70;50.18;101597.63;5072270;28;20024;-73
2022/07/31 06:36:46;;;;;;;4.10;1.60;;;;;;;23.70;50.08;101592.28;5072622;28;20491;-75
2022/07/31 06:39:11;;;;;;;3.20;1.80;;;;;;;23.71;50.24;101593.97;5071412;28;20757;-72
2022/07/31 06:41:43;;;;;;;4.25;1.90;;;;;;;23.72;50.19;101587.69;5072740;28;20042;-72
2022/07/31 06:44:08;;;;;;;2.53;1.40;;;;;;;23.73;50.23;101595.53;5072457;28;20025;-74
2022/07/31 06:46:43;;;;;;;3.83;1.60;;;;;;;23.76;49.91;101593.56;5071853;28;20464;-75
2022/07/31 06:49:09;;;;;;;3.67;1.80;;;;;;;23.78;50.27;101594.25;5072235;28;20103;-76
2022/07/31 06:51:34;;;;;;;3.75;1.60;;;;;;;23.80;50.26;101600.25;5072867;28;20074;-76
2022/07/31 06:54:02;;;;;;;2.83;1.75;;;;;;;23.82;50.35;101601.78;5071964;28;20020;-75
2022/07/31 06:56:28;;;;;;;4.15;1.90;;;;;;;23.82;50.29;101592.97;5072825;28;20020;-74
2022/07/31 06:58:54;;;;;;;4.32;1.70;;;;;;;23.68;50.57;101591.59;5072661;28;20483;-83
2022/07/31 07:01:20;;;;;;;3.55;1.73;;;;;;;23.70;51.25;101592.28;5072008;28;20036;-79
2022/07/31 07:03:48;;;;;;;4.00;1.70;;;;;;;23.73;50.94;101589.34;5072426;28;20025;-80
2022/07/31 07:06:14;;;;;;;3.25;1.63;;;;;;;23.77;51.30;101590.75;5072358;28;20020;-73
2022/07/31 07:08:42;;;;;;;3.75;1.70;;;;;;;23.76;50.95;101583.75;5072033;28;20099;-72
2022/07/31 07:11:08;;;;;;;5.38;1.70;;;;;;;23.75;51.13;101587.41;5072095;28;20029;-71
2022/07/31 07:13:33;;;;;;;4.07;1.60;;;;;;;23.83;51.02;101586.66;5072465;28;20503;-75
2022/07/31 07:15:58;;;;;;;3.22;1.60;;;;;;;23.90;51.16;101588.63;5073149;28;20045;-77
2022/07/31 07:18:27;;;;;;;3.47;1.67;;;;;;;24.00;51.30;101599.25;5073061;28;20029;-73
2022/07/31 07:20:53;;;;;;;5.40;2.05;;;;;;;24.07;50.59;101599.53;5071605;28;20531;-73
2022/07/31 07:23:20;;;;;;;3.17;1.60;;;;;;;24.13;50.76;101596.25;5071517;28;20028;-74
2022/07/31 07:25:45;;;;;;;3.35;1.67;;;;;;;24.17;50.94;101594.97;5072463;28;20021;-74
2022/07/31 07:28:11;;;;;;;4.68;1.88;;;;;;;24.21;50.86;101595.53;5071295;28;20384;-71
2022/07/31 07:30:36;;;;;;;3.10;1.60;;;;;;;24.24;50.49;101593.44;5072257;28;20040;-74
2022/07/31 07:33:01;;;;;;;3.78;1.98;;;;;;;24.29;50.65;101592.13;5071736;28;20025;-74
2022/07/31 07:35:27;;;;;;;3.97;1.90;;;;;;;24.34;50.72;101595.19;5071614;28;20032;-72
2022/07/31 07:37:53;;;;;;;4.78;2.30;;;;;;;24.37;50.40;101585.09;5072247;28;20517;-73
2022/07/31 07:40:19;;;;;;;4.30;1.90;;;;;;;24.40;50.10;101595.44;5071807;28;20385;-71
2022/07/31 07:42:45;;;;;;;4.45;2.25;;;;;;;24.41;50.35;101583.78;5071451;28;20103;-69
2022/07/31 07:45:11;;;;;;;3.63;1.90;;;;;;;24.40;50.47;101583.94;5071737;28;20092;-76
2022/07/31 07:47:37;;;;;;;4.03;2.20;;;;;;;24.41;50.23;101588.28;5072130;28;20043;-76
2022/07/31 07:50:05;;;;;;;5.00;2.25;;;;;;;24.43;50.45;101584.50;5072757;28;20032;-76
2022/07/31 07:52:30;;;;;;;4.55;2.42;;;;;;;24.47;50.17;101582.38;5080482;28;20032;-76
2022/07/31 07:54:56;;;;;;;5.22;2.17;;;;;;;24.48;50.23;101581.38;5079903;28;20073;-77
2022/07/31 07:57:24;;;;;;;5.28;3.20;;;;;;;24.46;50.89;101578.00;5078276;28;20073;-78
2022/07/31 07:59:50;;;;;;;5.63;3.08;;;;;;;24.50;50.54;101592.72;5078539;28;20028;-77
2022/07/31 08:02:15;;;;;;;6.43;2.95;;;;;;;24.51;50.34;101582.91;5076938;28;20460;-75
2022/07/31 08:04:41;;;;;;;6.43;2.60;;;;;;;24.51;50.66;101583.72;5074604;28;20056;-74
2022/07/31 08:07:06;;;;;;;4.93;2.72;;;;;;;24.53;50.34;101584.44;5075349;28;20044;-75
2022/07/31 08:09:32;;;;;;;4.28;2.33;;;;;;;24.55;50.19;101585.13;5075730;28;20450;-74
2022/07/31 08:11:58;;;;;;;4.82;2.40;;;;;;;24.57;50.31;101577.84;5074036;28;20115;-75
2022/07/31 08:14:24;;;;;;;4.68;2.63;;;;;;;24.59;50.14;101580.34;5075225;28;20071;-69
2022/07/31 08:16:53;;;;;;;6.82;2.33;;;;;;;24.59;49.95;101573.22;5074447;28;20045;-74
2022/07/31 08:19:18;;;;;;;4.32;2.25;;;;;;;24.63;50.25;101576.41;5075232;28;20029;-80
2022/07/31 08:21:44;;;;;;;4.47;2.55;;;;;;;24.66;50.10;101575.25;5076760;28;20029;-76
2022/07/31 08:24:15;;;;;;;5.35;3.05;;;;;;;24.69;50.09;101573.16;5074830;28;20029;-80
2022/07/31 08:29:24;;;;;;;7.25;2.70;;;;;;;24.74;50.84;101580.69;5075617;28;20142;-78
2022/07/31 08:31:50;;;;;;;8.17;3.10;;;;;;;24.74;50.83;101572.69;5074310;28;20112;-76
2022/07/31 08:34:16;;;;;;;8.45;3.03;;;;;;;24.73;51.13;101571.84;5074916;28;20043;-71
2022/07/31 08:36:43;;;;;;;5.13;2.95;;;;;;;24.69;50.80;101570.47;5074899;28;20446;-79
2022/07/31 08:39:08;;;;;;;6.35;2.67;;;;;;;24.70;50.45;101574.81;5074025;28;20025;-72
2022/07/31 08:41:37;;;;;;;6.10;3.20;;;;;;;24.70;51.08;101582.81;5074557;28;20035;-72
2022/07/31 08:44:06;;;;;;;5.32;2.58;;;;;;;24.73;50.77;101576.34;5074442;28;20032;-72
2022/07/31 08:46:36;;;;;;;6.80;3.33;;;;;;;24.73;50.89;101577.16;5074314;28;20052;-73
2022/07/31 08:49:02;;;;;;;6.03;2.88;;;;;;;24.72;51.90;101575.50;5074403;28;20067;-73
2022/07/31 08:51:29;;;;;;;6.68;3.40;;;;;;;24.70;51.24;101574.81;5074285;28;20466;-74
2022/07/31 08:54:04;;;;;;;6.03;3.10;;;;;;;24.70;51.56;101576.66;5076443;28;20060;-71
2022/07/31 08:56:32;;;;;;;6.05;3.15;;;;;;;24.69;51.33;101580.28;5074852;28;20021;-71
2022/07/31 08:58:58;;;;;;;5.60;3.08;;;;;;;24.70;51.51;101587.31;5074364;28;20081;-76
2022/07/31 09:01:23;;;;;;;6.03;3.17;;;;;;;24.70;50.95;101582.81;5074904;28;20024;-75
2022/07/31 09:03:49;;;;;;;6.55;3.40;;;;;;;24.72;51.00;101587.97;5074156;28;20047;-74
2022/07/31 09:06:20;;;;;;;5.47;3.10;;;;;;;24.74;50.89;101589.53;5073938;28;20024;-75
2022/07/31 09:08:45;;;;;;;5.10;2.97;;;;;;;24.76;50.77;101578.72;5075921;28;20031;-74
2022/07/31 09:11:12;;;;;;;7.20;2.90;;;;;;;24.78;50.96;101571.38;5074805;28;20107;-74
2022/07/31 09:13:39;;;;;;;6.00;3.58;;;;;;;24.79;50.87;101571.25;5074500;28;20024;-72
2022/07/31 09:16:04;;;;;;;6.03;3.00;;;;;;;24.79;51.13;101567.75;5073588;28;20048;-71
2022/07/31 09:18:30;;;;;;;6.13;2.75;;;;;;;24.78;51.20;101560.72;5075031;28;20376;-74
2022/07/31 09:21:00;;;;;;;6.38;2.97;;;;;;;24.83;51.58;101560.28;5073425;28;20059;-76
2022/07/31 09:23:27;;;;;;;5.70;2.95;;;;;;;24.84;51.05;101557.47;5074447;28;20028;-77
2022/07/31 09:25:58;;;;;;;6.60;2.80;;;;;;;24.86;50.79;101565.31;5074069;28;20487;-82
2022/07/31 09:28:34;;;;;;;6.25;3.08;;;;;;;24.90;50.53;101562.19;5073349;28;20028;-82
2022/07/31 09:31:00;;;;;;;7.30;3.08;;;;;;;24.91;50.69;101558.53;5073789;28;20104;-72
2022/07/31 09:33:29;;;;;;;5.95;2.80;;;;;;;24.90;50.81;101567.53;5073877;28;20361;-73
2022/07/31 09:35:56;;;;;;;4.85;2.78;;;;;;;24.86;51.48;101568.81;5073102;28;20384;-81
2022/07/31 09:38:30;;;;;;;5.65;3.10;;;;;;;24.86;51.09;101565.31;5073828;28;20033;-79
2022/07/31 09:40:55;;;;;;;7.25;2.97;;;;;;;24.85;50.93;101563.63;5073610;28;20130;-82
2022/07/31 09:43:23;;;;;;;6.15;3.10;;;;;;;24.85;51.13;101561.81;5073046;28;20059;-77
2022/07/31 09:45:57;;;;;;;5.18;2.63;;;;;;;24.86;50.64;101560.81;5073981;28;20092;-77
2022/07/31 09:48:22;;;;;;;4.32;2.53;;;;;;;24.86;51.08;101550.13;5073014;28;20024;-79
2022/07/31 09:50:58;;;;;;;6.07;2.63;;;;;;;24.89;50.95;101555.16;5073752;28;20043;-80
2022/07/31 09:53:38;;;;;;;5.93;3.00;;;;;;;24.88;51.03;101553.50;5073508;28;20280;-78
2022/07/31 09:56:06;;;;;;;4.95;2.80;;;;;;;24.86;51.28;101559.97;5072516;28;20107;-78
2022/07/31 09:58:31;;;;;;;6.65;2.85;;;;;;;24.87;51.30;101551.81;5073957;28;20512;-78
2022/07/31 10:00:57;;;;;;;5.63;2.90;;;;;;;24.90;50.96;101553.38;5074926;28;20029;-76
2022/07/31 10:03:24;;;;;;;5.60;2.90;;;;;;;24.91;50.66;101550.53;5074157;28;20277;-77
2022/07/31 10:05:49;;;;;;;5.43;3.10;;;;;;;24.92;50.91;101557.53;5075444;28;20388;-79
2022/07/31 10:08:16;;;;;;;4.53;2.78;;;;;;;24.93;50.60;101547.72;5075513;28;20020;-78
2022/07/31 10:10:47;;;;;;;6.05;2.90;;;;;;;24.94;50.77;101557.38;5074430;28;20036;-77
2022/07/31 10:13:18;;;;;;;5.28;2.92;;;;;;;24.92;50.74;101546.88;5074832;28;20021;-78
2022/07/31 10:15:45;;;;;;;4.70;2.83;;;;;;;24.94;50.59;101560.03;5074624;28;20048;-76
2022/07/31 10:18:11;;;;;;;6.45;3.67;;;;;;;24.94;51.15;101552.91;5073411;28;20036;-76
2022/07/31 10:20:41;;;;;;;4.07;2.42;;;;;;;24.95;50.77;101551.06;5076530;28;20028;-77
2022/07/31 10:23:27;;;;;;;5.60;2.60;;;;;;;24.97;50.46;101549.06;5074574;28;20032;-78
2022/07/31 10:25:58;;;;;;;3.90;2.38;;;;;;;24.99;50.93;101557.75;5074159;28;20199;-80
2022/07/31 10:28:24;;;;;;;5.43;2.50;;;;;;;24.99;50.76;101544.41;5074772;28;20384;-78
2022/07/31 10:30:50;;;;;;;4.35;2.70;;;;;;;25.01;50.76;101544.28;5074564;28;20025;-75
2022/07/31 10:33:18;;;;;;;5.63;2.75;;;;;;;25.02;50.16;101540.63;5073420;28;20036;-76
2022/07/31 10:35:56;;;;;;;5.30;2.65;;;;;;;24.99;50.49;101542.63;5072751;28;20388;-77
2022/07/31 10:38:48;;;;;;;4.38;2.75;;;;;;;24.97;50.72;101533.91;5073142;28;20036;-76
2022/07/31 10:41:30;;;;;;;4.90;2.40;;;;;;;24.97;50.93;101541.91;5072007;28;20048;-73
2022/07/31 10:44:01;;;;;;;6.95;2.60;;;;;;;24.95;51.02;101533.22;5072310;28;20029;-72
2022/07/31 10:46:31;;;;;;;4.47;2.45;;;;;;;24.95;50.71;101532.41;5072024;28;20028;-73
2022/07/31 10:48:56;;;;;;;4.35;2.63;;;;;;;24.89;51.15;101531.19;5072036;28;20120;-73
2022/07/31 10:51:22;;;;;;;5.72;2.25;;;;;;;24.89;50.77;101535.69;5072988;28;20103;-74
2022/07/31 10:54:00;;;;;;;4.85;2.65;;;;;;;24.90;50.67;101524.88;5071967;28;20021;-74
2022/07/31 10:56:26;;;;;;;7.55;3.20;;;;;;;24.90;51.31;101524.88;5074126;28;20040;-74
2022/07/31 10:58:54;;;;;;;5.10;2.63;;;;;;;24.92;51.39;101527.38;5071919;28;20037;-77
2022/07/31 11:01:24;;;;;;;5.13;2.83;;;;;;;24.93;51.76;101527.22;5075458;28;20517;-78
2022/07/31 11:03:57;;;;;;;6.35;2.90;;;;;;;24.98;51.23;101519.59;5076414;28;20024;-76
2022/07/31 11:06:25;;;;;;;5.63;2.75;;;;;;;25.01;51.17;101526.47;5074791;28;20024;-76
2022/07/31 11:09:03;;;;;;;5.28;2.72;;;;;;;25.02;50.55;101519.28;5078212;28;20380;-78
2022/07/31 11:11:40;;;;;;;5.43;2.45;;;;;;;25.01;50.86;101514.94;5079743;28;20052;-79
2022/07/31 11:14:08;;;;;;;6.10;2.67;;;;;;;25.00;50.98;101514.09;5076206;28;20035;-78
2022/07/31 11:16:34;;;;;;;5.38;2.50;;;;;;;25.01;50.96;101520.28;5076240;28;20067;-77
2022/07/31 11:19:02;;;;;;;7.10;2.77;;;;;;;25.01;50.80;101520.28;5076415;28;20476;-76
2022/07/31 11:21:34;;;;;;;4.32;2.60;;;;;;;25.01;51.10;101515.78;5073796;28;20351;-75
2022/07/31 11:24:00;;;;;;;3.80;2.25;;;;;;;25.03;50.87;101504.97;5072041;28;20040;-77
2022/07/31 11:26:25;;;;;;;4.70;2.45;;;;;;;25.04;50.73;101506.63;5074817;28;20460;-79
2022/07/31 11:28:51;;;;;;;5.53;2.60;;;;;;;25.07;50.98;101503.66;5075568;28;20067;-79
2022/07/31 11:31:16;;;;;;;4.60;2.43;;;;;;;25.10;50.60;101506.88;5076022;28;20112;-73